createdAt,value
2018-05-09T00:00:34.822Z,82.70
2018-05-09T00:03:02.385Z,82.80
2018-05-09T00:05:30.890Z,82.70
2018-05-09T00:07:58.292Z,83.10
2018-05-09T00:10:26.221Z,83.40
2018-05-09T00:12:53.672Z,83.20
2018-05-09T00:15:25.101Z,82.70
2018-05-09T00:17:52.381Z,82.50
2018-05-09T00:20:19.992Z,82.20
2018-05-09T00:22:47.530Z,81.90
2018-05-09T00:25:15.011Z,81.80
2018-05-09T00:27:42.901Z,81.90
2018-05-09T00:30:10.301Z,82.10
2018-05-09T00:32:37.731Z,82.20
2018-05-09T00:35:05.311Z,82.20
2018-05-09T00:37:34.961Z,82.40
2018-05-09T00:40:05.411Z,82.40
2018-05-09T00:42:32.941Z,82.20
2018-05-09T00:45:00.411Z,82.40
2018-05-09T00:47:31.512Z,82.50
2018-05-09T00:49:59.611Z,83.20
2018-05-09T00:52:30.991Z,83.10
2018-05-09T00:54:58.521Z,83.70
2018-05-09T00:57:25.801Z,84.00
2018-05-09T00:59:53.361Z,84.60
2018-05-09T01:02:20.882Z,84.80
2018-05-09T01:04:49.171Z,85.10
2018-05-09T01:07:17.411Z,85.60
2018-05-09T01:09:44.951Z,85.50
2018-05-09T01:12:16.195Z,85.90
2018-05-09T01:14:43.711Z,86.10
2018-05-09T01:17:11.276Z,86.40
2018-05-09T01:19:38.901Z,86.60
2018-05-09T01:22:06.383Z,87.10
2018-05-09T01:24:34.851Z,87.40
2018-05-09T01:27:02.392Z,87.70
2018-05-09T01:29:29.782Z,87.90
2018-05-09T01:31:57.172Z,87.60
2018-05-09T01:34:24.611Z,87.40
2018-05-09T01:36:52.081Z,87.40
2018-05-09T01:39:19.531Z,87.10
2018-05-09T01:41:48.241Z,86.70
2018-05-09T01:44:17.151Z,86.70
2018-05-09T01:46:44.532Z,86.90
2018-05-09T01:49:12.672Z,87.50
2018-05-09T01:51:40.192Z,87.50
2018-05-09T01:54:09.242Z,87.70
2018-05-09T01:56:36.801Z,87.80
2018-05-09T01:59:04.631Z,88.10
2018-05-09T02:01:32.016Z,88.30
2018-05-09T02:03:59.381Z,88.50
2018-05-09T02:06:26.851Z,88.60
2018-05-09T02:08:56.610Z,88.90
2018-05-09T02:11:24.012Z,88.90
2018-05-09T02:13:52.183Z,89.20
2018-05-09T02:16:19.788Z,89.20
2018-05-09T02:18:47.341Z,89.30
2018-05-09T02:21:14.831Z,89.10
2018-05-09T02:23:42.513Z,89.60
2018-05-09T02:26:10.801Z,89.50
2018-05-09T02:28:39.227Z,89.30
2018-05-09T02:31:06.693Z,89.30
2018-05-09T02:33:34.112Z,89.10
2018-05-09T02:36:01.644Z,89.00
2018-05-09T02:38:30.792Z,89.10
2018-05-09T02:40:58.367Z,89.10
2018-05-09T02:43:26.031Z,88.70
2018-05-09T02:45:53.572Z,88.70
2018-05-09T02:48:21.373Z,88.10
2018-05-09T02:50:48.793Z,87.70
2018-05-09T02:53:16.519Z,87.40
2018-05-09T02:55:44.033Z,87.60
2018-05-09T02:58:11.652Z,87.90
2018-05-09T03:00:39.995Z,88.20
2018-05-09T03:03:07.565Z,88.20
2018-05-09T03:05:35.062Z,88.20
2018-05-09T03:08:03.022Z,88.50
2018-05-09T03:10:30.632Z,88.30
2018-05-09T03:12:58.896Z,87.80
2018-05-09T03:15:26.511Z,87.90
2018-05-09T03:17:54.352Z,87.80
2018-05-09T03:20:22.118Z,88.00
2018-05-09T03:22:49.693Z,88.10
2018-05-09T03:25:17.210Z,87.70
2018-05-09T03:27:45.041Z,87.30
2018-05-09T03:30:14.723Z,87.30
2018-05-09T03:32:43.561Z,87.10
2018-05-09T03:35:11.004Z,87.00
2018-05-09T03:37:39.281Z,87.00
2018-05-09T03:40:07.572Z,86.90
2018-05-09T03:42:36.251Z,87.80
2018-05-09T03:45:04.502Z,89.10
2018-05-09T03:47:36.352Z,88.50
2018-05-09T03:50:03.822Z,88.90
2018-05-09T03:52:31.221Z,89.10
2018-05-09T03:54:58.722Z,89.50
2018-05-09T03:57:27.862Z,89.50
2018-05-09T03:59:55.282Z,89.50
2018-05-09T04:02:44.382Z,88.90
2018-05-09T04:05:29.704Z,87.90
2018-05-09T04:08:15.043Z,86.50
2018-05-09T04:10:43.604Z,85.30
2018-05-09T04:13:11.870Z,82.40
2018-05-09T04:15:41.296Z,82.40
2018-05-09T04:18:08.852Z,81.90
2018-05-09T04:20:36.345Z,79.60
2018-05-09T04:23:03.991Z,78.30
2018-05-09T04:25:31.732Z,77.10
2018-05-09T04:28:00.341Z,76.00
2018-05-09T04:30:27.782Z,75.20
2018-05-09T04:32:55.312Z,74.00
2018-05-09T04:35:28.214Z,72.80
2018-05-09T04:37:56.451Z,71.70
2018-05-09T04:40:25.457Z,71.70
2018-05-09T04:42:52.785Z,70.40
2018-05-09T04:45:20.152Z,69.20
2018-05-09T04:47:47.552Z,68.70
2018-05-09T04:50:16.593Z,68.20
2018-05-09T04:52:45.390Z,67.10
2018-05-09T04:55:12.911Z,66.10
2018-05-09T04:57:40.481Z,65.20
2018-05-09T05:00:08.421Z,64.50
2018-05-09T05:02:36.060Z,64.10
2018-05-09T05:05:05.330Z,64.10
2018-05-09T05:07:33.280Z,63.40
2018-05-09T05:10:00.882Z,63.90
2018-05-09T05:12:28.351Z,63.90
2018-05-09T05:14:59.000Z,63.00
2018-05-09T05:17:26.411Z,63.00
2018-05-09T05:19:54.091Z,62.70
2018-05-09T05:22:21.793Z,62.60
2018-05-09T05:24:52.533Z,62.50
2018-05-09T05:27:20.046Z,62.30
2018-05-09T05:29:48.430Z,61.60
2018-05-09T05:32:18.721Z,61.00
2018-05-09T05:34:46.522Z,61.00
2018-05-09T05:37:14.011Z,61.70
2018-05-09T05:39:41.692Z,61.40
2018-05-09T05:42:08.982Z,62.50
2018-05-09T05:44:37.971Z,62.80
2018-05-09T05:47:05.652Z,63.60
2018-05-09T05:49:33.022Z,65.10
2018-05-09T05:52:00.751Z,65.40
2018-05-09T05:54:30.921Z,66.30
2018-05-09T05:56:58.805Z,67.20
2018-05-09T05:59:26.904Z,67.90
2018-05-09T06:01:55.003Z,70.60
2018-05-09T06:04:23.381Z,70.60
2018-05-09T06:06:50.933Z,72.30
2018-05-09T06:09:18.412Z,72.70
2018-05-09T06:11:46.622Z,72.80
2018-05-09T06:14:14.207Z,72.90
2018-05-09T06:16:44.781Z,72.80
2018-05-09T06:19:13.812Z,73.30
2018-05-09T06:21:43.823Z,73.40
2018-05-09T06:24:11.396Z,72.70
2018-05-09T06:26:39.532Z,72.60
2018-05-09T06:29:07.191Z,73.30
2018-05-09T06:31:34.771Z,72.40
2018-05-09T06:34:02.271Z,71.50
2018-05-09T06:36:29.924Z,71.40
2018-05-09T06:38:58.201Z,71.60
2018-05-09T06:41:25.852Z,71.50
2018-05-09T06:43:53.562Z,70.50
2018-05-09T06:46:26.551Z,69.70
2018-05-09T06:48:54.492Z,69.50
2018-05-09T06:51:21.891Z,68.70
2018-05-09T06:53:50.123Z,69.00
2018-05-09T06:56:17.871Z,68.40
2018-05-09T06:58:45.147Z,68.50
2018-05-09T07:01:12.661Z,68.70
2018-05-09T07:03:40.142Z,68.00
2018-05-09T07:06:07.658Z,68.10
2018-05-09T07:08:35.471Z,68.60
2018-05-09T07:11:03.881Z,67.80
2018-05-09T07:13:31.661Z,67.40
2018-05-09T07:15:59.890Z,66.80
2018-05-09T07:18:27.388Z,66.70
2018-05-09T07:20:55.781Z,65.40
2018-05-09T07:23:23.461Z,65.40
2018-05-09T07:25:51.133Z,65.30
2018-05-09T07:28:18.552Z,65.60
2018-05-09T07:30:47.671Z,65.30
2018-05-09T07:33:16.554Z,65.40
2018-05-09T07:35:44.026Z,65.40
2018-05-09T07:38:11.573Z,64.20
2018-05-09T07:40:41.911Z,64.00
2018-05-09T07:43:09.341Z,64.40
2018-05-09T07:45:37.840Z,63.50
2018-05-09T07:48:05.450Z,63.40
2018-05-09T07:50:35.112Z,62.70
2018-05-09T07:53:02.631Z,62.00
2018-05-09T07:55:30.889Z,61.50
2018-05-09T07:57:58.483Z,61.50
2018-05-09T08:00:26.032Z,61.50
2018-05-09T08:02:54.291Z,61.90
2018-05-09T08:05:21.681Z,61.90
2018-05-09T08:07:50.551Z,61.60
2018-05-09T08:10:18.761Z,61.30
2018-05-09T08:12:46.277Z,61.90
2018-05-09T08:15:13.722Z,61.00
2018-05-09T08:17:41.102Z,60.30
2018-05-09T08:20:10.902Z,58.90
2018-05-09T08:22:38.511Z,58.80
2018-05-09T08:25:06.172Z,59.60
2018-05-09T08:27:35.542Z,60.20
2018-05-09T08:30:03.262Z,59.20
2018-05-09T08:32:30.692Z,59.00
2018-05-09T08:34:59.653Z,58.50
2018-05-09T08:37:28.561Z,60.10
2018-05-09T08:39:58.650Z,60.10
2018-05-09T08:42:32.741Z,59.10
2018-05-09T08:45:01.583Z,59.20
2018-05-09T08:47:31.432Z,58.20
2018-05-09T08:50:01.593Z,58.80
2018-05-09T08:52:30.552Z,57.90
2018-05-09T08:54:58.194Z,57.80
2018-05-09T08:57:26.272Z,57.00
2018-05-09T08:59:56.332Z,56.80
2018-05-09T09:02:23.932Z,55.50
2018-05-09T09:04:52.324Z,55.30
2018-05-09T09:07:22.512Z,54.10
2018-05-09T09:09:49.832Z,54.30
2018-05-09T09:12:18.193Z,54.70
2018-05-09T09:14:45.852Z,55.70
2018-05-09T09:17:13.582Z,52.40
2018-05-09T09:19:41.243Z,52.20
2018-05-09T09:22:08.712Z,53.50
2018-05-09T09:24:36.406Z,52.60
2018-05-09T09:27:03.902Z,50.80
2018-05-09T09:29:31.135Z,51.40
2018-05-09T09:31:59.212Z,48.90
2018-05-09T09:34:27.393Z,48.60
2018-05-09T09:36:57.143Z,48.50
2018-05-09T09:39:27.142Z,47.20
2018-05-09T09:42:00.662Z,41.50
2018-05-09T09:44:28.182Z,41.50
2018-05-09T09:46:55.720Z,43.00
2018-05-09T09:49:24.162Z,42.90
2018-05-09T09:51:51.436Z,44.60
2018-05-09T09:54:21.852Z,42.90
2018-05-09T09:56:50.682Z,38.40
2018-05-09T09:59:18.182Z,38.40
2018-05-09T10:01:45.552Z,37.40
2018-05-09T10:04:13.443Z,36.80
2018-05-09T10:06:40.943Z,36.20
2018-05-09T10:09:09.056Z,36.20
2018-05-09T10:11:37.363Z,39.90
2018-05-09T10:14:05.024Z,39.80
2018-05-09T10:16:32.682Z,39.90
2018-05-09T10:19:01.952Z,41.20
2018-05-09T10:21:30.167Z,40.40
2018-05-09T10:23:57.896Z,40.30
2018-05-09T10:26:26.053Z,40.90
2018-05-09T10:28:53.392Z,40.80
2018-05-09T10:31:21.156Z,40.50
2018-05-09T10:33:48.722Z,40.20
2018-05-09T10:36:16.243Z,39.90
2018-05-09T10:38:43.782Z,39.90
2018-05-09T10:41:11.522Z,40.20
2018-05-09T10:43:39.034Z,40.10
2018-05-09T10:46:07.232Z,39.90
2018-05-09T10:48:34.965Z,39.80
2018-05-09T10:51:02.582Z,39.70
2018-05-09T10:53:30.844Z,39.50
2018-05-09T10:55:58.442Z,39.40
2018-05-09T10:58:25.912Z,37.00
2018-05-09T11:00:54.542Z,36.70
2018-05-09T11:03:22.511Z,37.50
2018-05-09T11:05:50.092Z,37.70
2018-05-09T11:08:17.631Z,37.70
2018-05-09T11:10:45.093Z,37.60
2018-05-09T11:13:12.467Z,35.60
2018-05-09T11:15:39.854Z,37.30
2018-05-09T11:18:07.771Z,38.30
2018-05-09T11:20:35.754Z,36.60
2018-05-09T11:23:04.308Z,37.10
2018-05-09T11:25:31.836Z,37.60
2018-05-09T11:27:59.611Z,36.70
2018-05-09T11:30:27.241Z,37.70
2018-05-09T11:32:55.038Z,38.30
2018-05-09T11:35:22.840Z,37.40
2018-05-09T11:37:50.371Z,37.00
2018-05-09T11:40:17.993Z,36.60
2018-05-09T11:42:45.512Z,36.70
2018-05-09T11:45:13.102Z,37.10
2018-05-09T11:47:40.713Z,37.70
2018-05-09T11:50:08.332Z,39.60
2018-05-09T11:52:35.864Z,38.60
2018-05-09T11:55:03.342Z,39.30
2018-05-09T11:57:30.964Z,39.10
2018-05-09T11:59:58.656Z,38.50
2018-05-09T12:02:28.442Z,38.10
2018-05-09T12:04:55.881Z,36.60
2018-05-09T12:07:23.632Z,37.00
2018-05-09T12:09:51.322Z,37.40
2018-05-09T12:12:19.856Z,37.50
2018-05-09T12:14:47.493Z,37.40
2018-05-09T12:17:15.032Z,36.70
2018-05-09T12:19:43.552Z,36.90
2018-05-09T12:22:11.862Z,34.90
2018-05-09T12:24:39.342Z,35.60
2018-05-09T12:27:07.092Z,36.60
2018-05-09T12:29:40.582Z,37.00
2018-05-09T12:32:10.943Z,37.70
2018-05-09T12:34:38.483Z,36.70
2018-05-09T12:37:07.252Z,36.00
2018-05-09T12:39:36.028Z,35.40
2018-05-09T12:42:05.185Z,34.50
2018-05-09T12:44:40.022Z,36.20
2018-05-09T12:47:08.492Z,36.60
2018-05-09T12:49:38.241Z,37.00
2018-05-09T12:52:06.153Z,36.30
2018-05-09T12:54:34.699Z,36.30
2018-05-09T12:57:03.122Z,38.60
2018-05-09T12:59:31.955Z,38.60
2018-05-09T13:02:04.042Z,37.40
2018-05-09T13:04:31.873Z,37.50
2018-05-09T13:07:02.383Z,38.70
2018-05-09T13:09:30.441Z,39.90
2018-05-09T13:11:59.740Z,38.40
2018-05-09T13:14:30.393Z,38.10
2018-05-09T13:16:59.151Z,39.00
2018-05-09T13:19:29.211Z,38.90
2018-05-09T13:21:57.281Z,37.20
2018-05-09T13:24:29.472Z,37.20
2018-05-09T13:26:59.111Z,37.30
2018-05-09T13:29:27.362Z,37.20
2018-05-09T13:31:54.852Z,37.40
2018-05-09T13:34:25.585Z,37.80
2018-05-09T13:36:56.021Z,38.70
2018-05-09T13:39:26.302Z,36.40
2018-05-09T13:41:53.701Z,37.10
2018-05-09T13:44:21.831Z,37.30
2018-05-09T13:47:03.022Z,36.70
2018-05-09T13:49:35.781Z,36.80
2018-05-09T13:52:05.631Z,37.00
2018-05-09T13:54:36.821Z,37.20
2018-05-09T13:57:08.582Z,36.50
2018-05-09T13:59:37.901Z,37.40
2018-05-09T14:02:09.462Z,36.70
2018-05-09T14:04:37.043Z,37.00
2018-05-09T14:07:09.322Z,36.70
2018-05-09T14:09:40.064Z,36.60
2018-05-09T14:12:10.311Z,37.90
2018-05-09T14:14:45.894Z,37.90
2018-05-09T14:17:13.590Z,37.20
2018-05-09T14:19:46.412Z,37.20
2018-05-09T14:22:25.192Z,37.10
2018-05-09T14:24:52.812Z,37.50
2018-05-09T14:27:27.602Z,36.30
2018-05-09T14:32:57.621Z,35.60
2018-05-09T14:35:25.771Z,34.70
2018-05-09T14:37:55.242Z,36.60
2018-05-09T14:40:29.083Z,36.50
2018-05-09T14:42:56.842Z,36.70
2018-05-09T14:45:24.842Z,36.00
2018-05-09T14:47:56.101Z,36.40
2018-05-09T14:50:27.061Z,36.40
2018-05-09T14:52:56.092Z,36.90
2018-05-09T14:55:24.261Z,36.50
2018-05-09T14:57:54.210Z,36.80
2018-05-09T15:00:22.928Z,36.70
2018-05-09T15:02:51.143Z,36.60
2018-05-09T15:05:28.397Z,36.00
2018-05-09T15:07:59.572Z,36.00
2018-05-09T15:10:28.452Z,36.70
2018-05-09T15:12:57.326Z,36.00
2018-05-09T15:15:25.082Z,35.90
2018-05-09T15:17:55.918Z,36.90
2018-05-09T15:20:24.221Z,37.80
2018-05-09T15:22:53.062Z,38.40
2018-05-09T15:25:21.579Z,38.40
2018-05-09T15:27:49.771Z,38.70
2018-05-09T15:30:17.961Z,39.10
2018-05-09T15:32:47.689Z,40.40
2018-05-09T15:35:35.372Z,40.90
2018-05-09T15:38:06.552Z,41.00
2018-05-09T15:40:35.664Z,41.40
2018-05-09T15:43:04.082Z,40.90
2018-05-09T15:45:32.972Z,45.80
2018-05-09T15:48:00.611Z,50.80
2018-05-09T15:50:31.272Z,52.10
2018-05-09T15:52:59.452Z,56.40
2018-05-09T15:55:27.490Z,60.00
2018-05-09T15:57:58.051Z,57.50
2018-05-09T16:00:25.982Z,59.70
2018-05-09T16:02:53.686Z,62.20
2018-05-09T16:05:21.512Z,62.00
2018-05-09T16:07:49.252Z,71.00
2018-05-09T16:10:17.062Z,67.90
2018-05-09T16:12:44.631Z,67.90
2018-05-09T16:15:13.103Z,65.10
2018-05-09T16:17:40.713Z,65.10
2018-05-09T16:20:08.472Z,63.10
2018-05-09T16:22:35.998Z,66.30
2018-05-09T16:25:04.114Z,68.90
2018-05-09T16:27:31.631Z,70.20
2018-05-09T16:29:59.192Z,72.00
2018-05-09T16:32:26.893Z,75.80
2018-05-09T16:34:54.940Z,75.90
2018-05-09T16:37:22.681Z,78.50
2018-05-09T16:39:50.492Z,78.50
2018-05-09T16:42:18.896Z,79.10
2018-05-09T16:44:46.852Z,83.60
2018-05-09T16:47:14.443Z,86.00
2018-05-09T16:49:42.802Z,68.50
2018-05-09T16:52:10.594Z,85.00
2018-05-09T16:54:39.092Z,85.50
2018-05-09T16:57:06.891Z,81.90
2018-05-09T16:59:34.640Z,87.30
2018-05-09T17:02:02.393Z,81.20
2018-05-09T17:04:30.563Z,83.20
2018-05-09T17:06:58.453Z,83.10
2018-05-09T17:09:26.606Z,82.80
2018-05-09T17:12:17.171Z,82.20
2018-05-09T17:17:29.332Z,85.60
2018-05-09T17:19:57.831Z,83.40
2018-05-09T17:22:52.872Z,83.40
2018-05-09T17:25:22.832Z,76.40
2018-05-09T17:27:52.752Z,76.50
2018-05-09T17:30:21.009Z,77.20
2018-05-09T17:32:48.491Z,77.20
2018-05-09T17:35:17.358Z,77.90
2018-05-09T17:37:46.794Z,80.00
2018-05-09T17:40:16.981Z,80.00
2018-05-09T17:42:46.211Z,78.90
2018-05-09T17:45:14.611Z,78.90
2018-05-09T17:47:42.312Z,81.60
2018-05-09T17:50:12.562Z,79.70
2018-05-09T17:52:40.003Z,79.90
2018-05-09T17:55:10.743Z,83.40
2018-05-09T17:57:38.233Z,83.40
2018-05-09T18:00:06.031Z,85.40
2018-05-09T18:02:34.283Z,86.30
2018-05-09T18:05:02.481Z,86.30
2018-05-09T18:07:29.911Z,87.70
2018-05-09T18:09:57.782Z,88.40
2018-05-09T18:12:25.514Z,88.70
2018-05-09T18:14:57.394Z,88.50
2018-05-09T18:17:25.712Z,88.70
2018-05-09T18:19:53.193Z,89.30
2018-05-09T18:22:20.813Z,90.00
2018-05-09T18:24:54.285Z,90.90
2018-05-09T18:27:21.642Z,90.80
2018-05-09T18:29:49.433Z,91.40
2018-05-09T18:32:17.661Z,91.30
2018-05-09T18:34:45.573Z,91.30
2018-05-09T18:37:13.163Z,91.30
2018-05-09T18:39:43.937Z,91.40
2018-05-09T18:42:11.206Z,91.90
2018-05-09T18:44:38.892Z,91.90
2018-05-09T18:47:06.813Z,91.50
2018-05-09T18:49:35.026Z,91.80
2018-05-09T18:52:03.242Z,91.70
2018-05-09T18:54:31.483Z,92.10
2018-05-09T18:56:58.923Z,92.30
2018-05-09T18:59:27.344Z,93.10
2018-05-09T19:01:54.873Z,93.00
2018-05-09T19:04:22.592Z,93.30
2018-05-09T19:06:51.693Z,94.00
2018-05-09T19:09:23.194Z,94.30
2018-05-09T19:11:53.263Z,94.30
2018-05-09T19:14:20.903Z,94.40
2018-05-09T19:16:49.853Z,94.50
2018-05-09T19:19:19.403Z,94.70
2018-05-09T19:21:48.342Z,94.80
2018-05-09T19:24:17.742Z,95.50
2018-05-09T19:26:46.896Z,95.40
2018-05-09T19:29:16.224Z,95.40
2018-05-09T19:31:43.692Z,95.40
2018-05-09T19:34:12.267Z,95.50
2018-05-09T19:36:41.420Z,95.50
2018-05-09T19:39:12.152Z,95.60
2018-05-09T19:41:42.318Z,95.80
2018-05-09T19:44:11.544Z,96.00
2018-05-09T19:46:42.742Z,96.00
2018-05-09T19:49:15.644Z,96.00
2018-05-09T19:51:44.861Z,96.10
2018-05-09T19:54:12.932Z,96.10
2018-05-09T19:56:40.512Z,96.40
2018-05-09T19:59:10.002Z,96.40
2018-05-09T20:01:38.221Z,96.50
2018-05-09T20:04:09.325Z,96.40
2018-05-09T20:06:39.371Z,96.50
2018-05-09T20:09:08.832Z,96.40
2018-05-09T20:11:37.872Z,96.30
2018-05-09T20:14:10.873Z,96.40
2018-05-09T20:16:40.532Z,96.40
2018-05-09T20:19:08.442Z,96.40
2018-05-09T20:21:42.892Z,96.50
2018-05-09T20:24:10.611Z,96.90
2018-05-09T20:26:44.722Z,97.20
2018-05-09T20:29:12.831Z,97.20
2018-05-09T20:32:02.962Z,96.80
2018-05-09T20:34:43.582Z,96.70
2018-05-09T20:37:13.182Z,96.70
2018-05-09T20:39:43.283Z,96.70
2018-05-09T20:42:13.292Z,96.70
2018-05-09T20:44:40.702Z,96.80
2018-05-09T20:47:08.982Z,96.80
2018-05-09T20:49:36.623Z,96.90
2018-05-09T20:52:05.782Z,97.00
2018-05-09T20:54:33.362Z,97.00
2018-05-09T20:57:01.282Z,97.00
2018-05-09T20:59:28.802Z,97.00
2018-05-09T21:01:56.571Z,97.10
2018-05-09T21:04:24.952Z,97.10
2018-05-09T21:06:52.598Z,97.10
2018-05-09T21:09:22.662Z,97.10
2018-05-09T21:12:08.157Z,97.10
2018-05-09T21:14:38.157Z,97.20
2018-05-09T21:17:06.161Z,97.10
2018-05-09T21:19:33.804Z,97.10
2018-05-09T21:22:01.766Z,97.20
2018-05-09T21:24:30.034Z,97.10
2018-05-09T21:26:57.672Z,97.10
2018-05-09T21:29:25.391Z,97.20
2018-05-09T21:31:53.033Z,97.30
2018-05-09T21:34:20.473Z,97.30
2018-05-09T21:36:50.392Z,97.40
2018-05-09T21:39:19.412Z,97.70
2018-05-09T21:41:46.872Z,97.80
2018-05-09T21:44:14.412Z,97.70
2018-05-09T21:46:43.721Z,97.60
2018-05-09T21:49:11.902Z,97.60
2018-05-09T21:51:43.432Z,97.60
2018-05-09T21:54:10.892Z,97.60
2018-05-09T21:56:41.156Z,97.60
2018-05-09T21:59:08.631Z,97.50
2018-05-09T22:01:37.103Z,97.50
2018-05-09T22:04:04.812Z,97.60
2018-05-09T22:06:32.493Z,97.60
2018-05-09T22:09:00.411Z,97.60
2018-05-09T22:11:27.995Z,97.50
2018-05-09T22:13:55.895Z,97.60
2018-05-09T22:16:24.683Z,97.70
2018-05-09T22:18:54.704Z,97.70
2018-05-09T22:21:24.151Z,97.80
2018-05-09T22:23:51.881Z,97.80
2018-05-09T22:26:19.981Z,97.80
2018-05-09T22:28:49.051Z,97.80
2018-05-09T22:31:16.401Z,97.60
2018-05-09T22:33:44.782Z,97.60
2018-05-09T22:36:12.403Z,97.60
2018-05-09T22:38:43.821Z,97.60
2018-05-09T22:41:11.281Z,97.60
2018-05-09T22:43:39.232Z,97.60
2018-05-09T22:46:06.801Z,97.60
2018-05-09T22:48:35.002Z,97.70
2018-05-09T22:51:02.431Z,97.70
2018-05-09T22:53:30.001Z,97.70
2018-05-09T22:55:57.711Z,97.60
2018-05-09T22:58:27.951Z,97.80
2018-05-09T23:00:55.562Z,97.80
2018-05-09T23:03:23.261Z,97.90
2018-05-09T23:05:50.779Z,97.80
2018-05-09T23:08:18.511Z,97.80
2018-05-09T23:10:46.071Z,97.70
2018-05-09T23:13:14.201Z,97.70
2018-05-09T23:15:42.512Z,97.60
2018-05-09T23:18:09.971Z,97.60
2018-05-09T23:20:41.251Z,97.80
2018-05-09T23:23:09.151Z,97.60
2018-05-09T23:25:39.350Z,97.70
2018-05-09T23:28:06.730Z,97.60
2018-05-09T23:30:34.270Z,97.60
2018-05-09T23:33:01.670Z,97.60
2018-05-09T23:35:30.802Z,97.50
2018-05-09T23:37:58.371Z,97.50
2018-05-09T23:40:26.631Z,97.60
2018-05-09T23:42:54.291Z,97.60
2018-05-09T23:45:22.150Z,97.60
2018-05-09T23:47:52.781Z,97.60
2018-05-09T23:50:20.331Z,97.60
2018-05-09T23:52:47.861Z,97.60
2018-05-09T23:55:18.541Z,97.60
2018-05-09T23:57:47.892Z,97.60
